Portada
METAR-TAF:

METAR-TAF

Aeroports :

Souillac

Briva la Galharda, França

latitud: 45-02-28N, longitud: 001-28-59E, altitud: 311 m

Observació

L'informe es va fer fa 26 minuts, a les 00:00 UTC
Vent 7 kt del Nord-Oest
Temperatura 21°C
Humitat 78%
Pressió 1021 hPa
Visibilitat 10 km o més
Cel cobert a una alçada de 4400 ft

METAR: LFSL 210000Z AUTO 31007KT 9999 OVC044 21/17 Q1021

Hora: 02:26 (00:26 UTC)

Pronòstic

L'informe es va fer fa 10 hores i 26 minuts, a les 14:00 UTC
Pronòstic vàlid del 20 a les 15 UTC al 20 a les 24 UTC
Vent 6 kt del Oest
Visibilitat 10 km o més
sense núvols per sota de 1500 mi sense presència de cumulonimbus.
Temporalment
l' 20 a les 15 UTC al 20 a les 18 UTC
Núvols disperses a una alçada de 2500 ft

TAF: LFSL 201400Z 2015/2024 27006KT CAVOK TEMPO 2015/2018 SCT025

Observacions i pronòstics meteorològics de més de 4000 aeroports (METAR i TAF).

Les estacions disponibles són els punts grocs i vermells al mapa.

Posi el ratolí al punt desitjat per veure el nom de l'estació.

Feu clic per veure les observacions i els pronòstics meteorològics.

Per canviar el mapa: feu clic els botons verds amb una creu de color negre per apropar; al botó verd amb un guió per allunyar la imatge; o en les fletxes verdes per a mapes adjacents.


METAR-TAF: